Aviation Digital Data Service (ADDS)

Output produced by TAFs form (0344 UTC 01 August 2014)
found at http://aviationweather.gov/adds/tafs/
 
KMAF 010216Z 0102/0124 09008KT P6SM FEW120 SCT200 
     FM010600 VRB05KT P6SM SCT250